createdAt,value
2023-01-20T00:02:03.227Z,99681.56
2023-01-20T00:05:06.503Z,99688.06
2023-01-20T00:08:09.320Z,99686.53
2023-01-20T00:11:13.059Z,99699.78
2023-01-20T00:14:16.238Z,99700.22
2023-01-20T00:17:18.717Z,99721.53
2023-01-20T00:20:21.692Z,99735.47
2023-01-20T00:23:24.213Z,99747.06
2023-01-20T00:26:27.052Z,99740.75
2023-01-20T00:29:29.912Z,99743.50
2023-01-20T00:32:40.125Z,99748.53
2023-01-20T00:35:43.099Z,99738.53
2023-01-20T00:38:46.511Z,99743.78
2023-01-20T00:41:49.494Z,99739.03
2023-01-20T00:44:52.565Z,99725.13
2023-01-20T00:47:54.945Z,99719.94
2023-01-20T00:50:58.417Z,99729.84
2023-01-20T00:54:01.211Z,99732.53
2023-01-20T00:57:03.708Z,99739.66
2023-01-20T01:00:06.819Z,99742.56
2023-01-20T01:03:10.899Z,99745.72
2023-01-20T01:06:16.937Z,99742.28
2023-01-20T01:09:21.907Z,99743.09
2023-01-20T01:12:24.326Z,99744.13
2023-01-20T01:15:27.736Z,99739.97
2023-01-20T01:18:30.353Z,99736.63
2023-01-20T01:21:33.185Z,99740.03
2023-01-20T01:24:35.881Z,99745.09
2023-01-20T01:27:38.768Z,99743.22
2023-01-20T01:30:41.543Z,99743.31
2023-01-20T01:33:44.425Z,99740.97
2023-01-20T01:36:47.094Z,99731.25
2023-01-20T01:39:49.823Z,99732.81
2023-01-20T01:42:52.274Z,99752.00
2023-01-20T01:45:55.506Z,99741.78
2023-01-20T01:49:01.030Z,99738.16
2023-01-20T01:52:09.262Z,99731.31
2023-01-20T01:55:13.319Z,99727.63
2023-01-20T01:58:19.655Z,99725.75
2023-01-20T02:01:22.980Z,99732.91
2023-01-20T02:04:27.940Z,99730.78
2023-01-20T02:07:33.599Z,99735.53
2023-01-20T02:10:36.664Z,99732.13
2023-01-20T02:13:39.885Z,99738.19
2023-01-20T02:16:55.165Z,99736.84
2023-01-20T02:20:25.181Z,99737.66
2023-01-20T02:23:52.616Z,99740.06
2023-01-20T02:27:34.609Z,99748.69
2023-01-20T02:31:05.243Z,99756.03
2023-01-20T02:34:17.680Z,99746.59
2023-01-20T02:37:29.676Z,99744.53
2023-01-20T02:40:50.361Z,99736.41
2023-01-20T02:43:59.023Z,99731.94
2023-01-20T02:47:15.178Z,99737.19
2023-01-20T02:50:40.854Z,99737.94
2023-01-20T02:54:01.899Z,99743.97
2023-01-20T02:57:09.232Z,99736.88
2023-01-20T03:00:25.718Z,99738.25
2023-01-20T03:03:33.684Z,99739.81
2023-01-20T03:06:42.528Z,99745.06
2023-01-20T03:09:49.592Z,99749.22
2023-01-20T03:12:59.608Z,99759.25
2023-01-20T03:16:08.950Z,99761.38
2023-01-20T03:19:11.825Z,99759.53
2023-01-20T03:22:14.800Z,99757.41
2023-01-20T03:25:18.901Z,99756.56
2023-01-20T03:28:21.978Z,99760.78
2023-01-20T03:31:28.246Z,99751.06
2023-01-20T03:34:35.261Z,99742.91
2023-01-20T03:37:37.883Z,99739.22
2023-01-20T03:40:57.259Z,99738.97
2023-01-20T03:44:09.640Z,99736.34
2023-01-20T03:47:23.858Z,99733.44
2023-01-20T03:50:43.020Z,99732.66
2023-01-20T03:53:52.567Z,99727.16
2023-01-20T03:57:04.401Z,99726.66
2023-01-20T04:00:09.010Z,99734.22
2023-01-20T04:03:21.317Z,99718.19
2023-01-20T04:06:27.834Z,99728.16
2023-01-20T04:09:35.237Z,99721.59
2023-01-20T04:12:37.871Z,99721.06
2023-01-20T04:15:44.516Z,99715.53
2023-01-20T04:18:49.942Z,99715.84
2023-01-20T04:22:01.818Z,99724.78
2023-01-20T04:25:26.343Z,99719.31
2023-01-20T04:28:29.642Z,99719.38
2023-01-20T04:31:32.721Z,99721.72
2023-01-20T04:34:35.251Z,99735.19
2023-01-20T04:37:38.095Z,99736.75
2023-01-20T04:40:41.242Z,99731.50
2023-01-20T04:43:47.428Z,99723.63
2023-01-20T04:46:50.030Z,99728.09
2023-01-20T04:49:53.107Z,99725.25
2023-01-20T04:52:56.263Z,99724.41
2023-01-20T04:55:59.292Z,99738.38
2023-01-20T04:59:01.648Z,99745.72
2023-01-20T05:02:04.429Z,99738.88
2023-01-20T05:05:07.344Z,99749.94
2023-01-20T05:08:10.189Z,99742.06
2023-01-20T05:11:13.014Z,99722.63
2023-01-20T05:14:15.617Z,99726.56
2023-01-20T05:17:18.168Z,99721.06
2023-01-20T05:20:21.009Z,99709.50
2023-01-20T05:23:23.441Z,99718.44
2023-01-20T05:26:26.561Z,99699.78
2023-01-20T05:29:29.441Z,99706.91
2023-01-20T05:32:32.248Z,99714.78
2023-01-20T05:35:34.872Z,99699.78
2023-01-20T05:38:38.505Z,99706.88
2023-01-20T05:41:41.243Z,99689.53
2023-01-20T05:44:43.813Z,99683.28
2023-01-20T05:47:46.501Z,99683.53
2023-01-20T05:50:49.451Z,99678.03
2023-01-20T05:53:51.913Z,99696.16
2023-01-20T05:56:54.887Z,99701.66
2023-01-20T05:59:57.347Z,99707.72
2023-01-20T06:03:00.624Z,99720.56
2023-01-20T06:06:05.306Z,99722.41
2023-01-20T06:09:08.006Z,99728.44
2023-01-20T06:12:10.660Z,99731.84
2023-01-20T06:15:13.513Z,99721.63
2023-01-20T06:18:16.139Z,99716.63
2023-01-20T06:21:18.926Z,99717.41
2023-01-20T06:24:21.400Z,99715.84
2023-01-20T06:27:23.989Z,99723.72
2023-01-20T06:30:26.509Z,99698.50
2023-01-20T06:33:29.555Z,99697.72
2023-01-20T06:36:32.002Z,99714.78
2023-01-20T06:39:34.749Z,99717.41
2023-01-20T06:42:37.794Z,99719.78
2023-01-20T06:45:40.330Z,99705.13
2023-01-20T06:48:43.987Z,99704.31
2023-01-20T06:51:48.985Z,99712.19
2023-01-20T06:54:51.648Z,99715.06
2023-01-20T06:57:54.526Z,99714.78
2023-01-20T07:00:58.313Z,99716.91
2023-01-20T07:04:01.089Z,99715.06
2023-01-20T07:07:03.723Z,99694.84
2023-01-20T07:10:06.961Z,99691.16
2023-01-20T07:13:09.422Z,99700.63
2023-01-20T07:16:15.311Z,99705.88
2023-01-20T07:19:18.567Z,99704.28
2023-01-20T07:22:21.341Z,99696.16
2023-01-20T07:25:24.404Z,99705.34
2023-01-20T07:28:27.681Z,99696.88
2023-01-20T07:31:31.774Z,99697.94
2023-01-20T07:34:34.373Z,99704.75
2023-01-20T07:37:36.895Z,99690.56
2023-01-20T07:40:40.367Z,99693.72
2023-01-20T07:43:44.276Z,99694.75
2023-01-20T07:46:46.980Z,99684.00
2023-01-20T07:49:49.450Z,99691.81
2023-01-20T07:52:53.946Z,99681.59
2023-01-20T07:55:56.608Z,99676.31
2023-01-20T07:58:59.597Z,99672.63
2023-01-20T08:02:02.311Z,99666.03
2023-01-20T08:05:06.109Z,99660.00
2023-01-20T08:08:08.620Z,99652.34
2023-01-20T08:11:14.129Z,99643.91
2023-01-20T08:14:16.738Z,99647.84
2023-01-20T08:17:19.673Z,99645.25
2023-01-20T08:20:23.191Z,99653.63
2023-01-20T08:23:26.379Z,99640.22
2023-01-20T08:26:30.042Z,99645.72
2023-01-20T08:29:33.793Z,99660.19
2023-01-20T08:32:36.288Z,99655.47
2023-01-20T08:35:39.098Z,99661.00
2023-01-20T08:38:41.894Z,99686.47
2023-01-20T08:41:45.404Z,99692.25
2023-01-20T08:44:52.396Z,99690.69
2023-01-20T08:48:10.699Z,99696.72
2023-01-20T08:51:16.215Z,99690.94
2023-01-20T08:54:19.506Z,99673.06
2023-01-20T08:57:26.021Z,99671.72
2023-01-20T09:00:28.815Z,99662.78
2023-01-20T09:03:33.092Z,99667.25
2023-01-20T09:06:45.458Z,99674.81
2023-01-20T09:09:48.337Z,99679.28
2023-01-20T09:12:51.228Z,99670.56
2023-01-20T09:15:54.003Z,99659.28
2023-01-20T09:18:56.724Z,99664.53
2023-01-20T09:21:59.286Z,99666.63
2023-01-20T09:25:02.318Z,99664.00
2023-01-20T09:28:06.610Z,99651.84
2023-01-20T09:31:10.349Z,99657.09
2023-01-20T09:34:19.538Z,99642.59
2023-01-20T09:37:41.926Z,99645.00
2023-01-20T09:41:17.553Z,99651.00
2023-01-20T09:44:55.748Z,99642.34
2023-01-20T09:48:15.311Z,99640.47
2023-01-20T09:52:00.271Z,99642.59
2023-01-20T09:55:10.668Z,99640.28
2023-01-20T09:58:48.108Z,99649.22
2023-01-20T10:01:56.910Z,99643.16
2023-01-20T10:05:06.739Z,99635.88
2023-01-20T10:08:27.576Z,99631.13
2023-01-20T10:11:35.610Z,99625.63
2023-01-20T10:14:46.536Z,99613.28
2023-01-20T10:18:03.172Z,99607.19
2023-01-20T10:21:25.737Z,99593.53
2023-01-20T10:24:53.059Z,99593.53
2023-01-20T10:28:21.385Z,99575.66
2023-01-20T10:31:30.921Z,99570.19
2023-01-20T10:34:44.326Z,99579.66
2023-01-20T10:37:47.280Z,99571.56
2023-01-20T10:40:57.323Z,99559.50
2023-01-20T10:44:00.737Z,99546.34
2023-01-20T10:47:17.040Z,99555.28
2023-01-20T10:50:45.195Z,99558.44
2023-01-20T10:53:54.144Z,99557.94
2023-01-20T10:57:01.040Z,99562.19
2023-01-20T11:00:08.260Z,99552.19
2023-01-20T11:03:16.215Z,99555.97
2023-01-20T11:06:21.326Z,99547.06
2023-01-20T11:09:35.360Z,99545.25
2023-01-20T11:12:41.599Z,99539.53
2023-01-20T11:15:50.205Z,99544.31
2023-01-20T11:19:04.502Z,99544.88
2023-01-20T11:22:20.874Z,99531.50
2023-01-20T11:25:26.870Z,99519.94
2023-01-20T11:28:43.374Z,99515.75
2023-01-20T11:31:55.682Z,99521.78
2023-01-20T11:34:58.983Z,99519.69
2023-01-20T11:38:21.816Z,99520.22
2023-01-20T11:41:30.248Z,99522.59
2023-01-20T11:44:32.847Z,99515.50
2023-01-20T11:47:37.538Z,99517.16
2023-01-20T11:50:46.349Z,99513.72
2023-01-20T11:53:49.280Z,99520.56
2023-01-20T11:57:05.210Z,99526.59
2023-01-20T12:00:19.830Z,99537.69
2023-01-20T12:03:54.554Z,99531.16
2023-01-20T12:07:07.722Z,99515.47
2023-01-20T12:10:22.610Z,99528.59
2023-01-20T12:14:02.356Z,99527.59
2023-01-20T12:17:41.623Z,99512.94
2023-01-20T12:20:57.737Z,99513.44
2023-01-20T12:24:18.217Z,99514.53
2023-01-20T12:27:25.972Z,99511.13
2023-01-20T12:30:57.439Z,99505.63
2023-01-20T12:34:11.137Z,99505.66
2023-01-20T12:37:42.826Z,99495.16
2023-01-20T12:40:52.722Z,99502.25
2023-01-20T12:44:16.464Z,99495.16
2023-01-20T12:47:54.139Z,99494.63
2023-01-20T12:51:01.859Z,99481.00
2023-01-20T12:54:22.936Z,99477.34
2023-01-20T12:58:00.394Z,99477.59
2023-01-20T13:01:20.321Z,99486.78
2023-01-20T13:04:48.041Z,99487.84
2023-01-20T13:08:11.532Z,99484.19
2023-01-20T13:11:48.217Z,99484.44
2023-01-20T13:14:58.834Z,99476.84
2023-01-20T13:18:19.833Z,99474.50
2023-01-20T13:21:22.545Z,99471.34
2023-01-20T13:24:29.446Z,99468.47
2023-01-20T13:27:37.532Z,99466.09
2023-01-20T13:30:43.358Z,99462.97
2023-01-20T13:33:46.027Z,99460.06
2023-01-20T13:37:03.866Z,99461.13
2023-01-20T13:40:35.565Z,99458.22
2023-01-20T13:43:47.946Z,99468.19
2023-01-20T13:46:50.447Z,99459.03
2023-01-20T13:49:54.697Z,99445.41
2023-01-20T13:52:57.267Z,99435.94
2023-01-20T13:56:02.172Z,99439.91
2023-01-20T13:59:07.794Z,99430.19
2023-01-20T14:02:18.118Z,99434.34
2023-01-20T14:05:27.161Z,99425.97
2023-01-20T14:08:32.161Z,99424.97
2023-01-20T14:11:34.648Z,99426.78
2023-01-20T14:14:42.340Z,99420.47
2023-01-20T14:17:53.332Z,99426.75
2023-01-20T14:21:03.824Z,99433.88
2023-01-20T14:24:27.206Z,99423.59
2023-01-20T14:27:32.448Z,99410.25
2023-01-20T14:30:35.084Z,99409.19
2023-01-20T14:33:55.494Z,99406.31
2023-01-20T14:36:59.759Z,99407.63
2023-01-20T14:40:26.116Z,99418.38
2023-01-20T14:43:30.837Z,99416.25
2023-01-20T14:46:37.306Z,99410.75
2023-01-20T14:49:41.608Z,99409.66
2023-01-20T14:52:46.199Z,99406.50
2023-01-20T14:56:02.507Z,99403.66
2023-01-20T14:59:05.289Z,99412.00
2023-01-20T15:02:18.254Z,99410.16
2023-01-20T15:05:30.129Z,99407.28
2023-01-20T15:08:32.645Z,99393.84
2023-01-20T15:11:36.680Z,99408.28
2023-01-20T15:14:40.996Z,99395.44
2023-01-20T15:18:05.445Z,99393.06
2023-01-20T15:21:27.949Z,99394.63
2023-01-20T15:24:32.744Z,99391.22
2023-01-20T15:27:36.357Z,99398.56
2023-01-20T15:30:39.193Z,99402.75
2023-01-20T15:33:42.358Z,99398.56
2023-01-20T15:36:46.195Z,99392.25
2023-01-20T15:39:48.753Z,99388.59
2023-01-20T15:42:51.940Z,99394.09
2023-01-20T15:45:54.312Z,99392.78
2023-01-20T15:48:57.578Z,99401.44
2023-01-20T15:52:00.257Z,99403.81
2023-01-20T15:55:03.395Z,99409.03
2023-01-20T15:58:22.478Z,99404.31
2023-01-20T16:01:26.959Z,99408.00
2023-01-20T16:04:31.635Z,99412.44
2023-01-20T16:07:35.048Z,99420.06
2023-01-20T16:10:37.579Z,99414.28
2023-01-20T16:13:40.943Z,99406.44
2023-01-20T16:16:43.460Z,99420.88
2023-01-20T16:19:46.341Z,99420.09
2023-01-20T16:22:48.945Z,99433.19
2023-01-20T16:25:51.390Z,99427.13
2023-01-20T16:28:56.262Z,99439.47
2023-01-20T16:31:59.009Z,99443.94
2023-01-20T16:35:01.467Z,99442.34
2023-01-20T16:38:04.316Z,99453.63
2023-01-20T16:41:14.354Z,99463.09
2023-01-20T16:44:17.527Z,99481.97
2023-01-20T16:47:19.934Z,99484.59
2023-01-20T16:50:22.524Z,99490.88
2023-01-20T16:53:25.319Z,99490.38
2023-01-20T16:56:30.395Z,99498.47
2023-01-20T16:59:34.194Z,99502.94
2023-01-20T17:02:39.004Z,99494.03
2023-01-20T17:05:41.776Z,99504.78
2023-01-20T17:08:49.760Z,99504.00
2023-01-20T17:11:52.585Z,99494.28
2023-01-20T17:14:55.198Z,99487.97
2023-01-20T17:17:58.599Z,99489.03
2023-01-20T17:21:06.217Z,99481.94
2023-01-20T17:24:11.609Z,99490.34
2023-01-20T17:27:14.123Z,99478.28
2023-01-20T17:30:17.775Z,99487.47
2023-01-20T17:33:20.439Z,99484.56
2023-01-20T17:36:23.696Z,99492.44
2023-01-20T17:39:26.302Z,99492.19
2023-01-20T17:42:29.061Z,99486.94
2023-01-20T17:45:32.555Z,99495.88
2023-01-20T17:48:35.660Z,99483.81
2023-01-20T17:51:38.333Z,99477.28
2023-01-20T17:54:41.279Z,99483.59
2023-01-20T17:57:44.165Z,99481.25
2023-01-20T18:00:47.659Z,99483.59
2023-01-20T18:03:51.874Z,99490.72
2023-01-20T18:06:54.958Z,99499.09
2023-01-20T18:09:57.702Z,99491.00
2023-01-20T18:13:00.803Z,99502.00
2023-01-20T18:16:12.443Z,99504.88
2023-01-20T18:19:15.427Z,99507.25
2023-01-20T18:22:19.005Z,99515.38
2023-01-20T18:25:22.204Z,99512.50
2023-01-20T18:28:24.909Z,99510.94
2023-01-20T18:31:29.798Z,99514.84
2023-01-20T18:34:32.441Z,99513.28
2023-01-20T18:37:35.696Z,99521.41
2023-01-20T18:40:38.665Z,99519.56
2023-01-20T18:43:42.038Z,99523.50
2023-01-20T18:46:45.216Z,99523.25
2023-01-20T18:49:48.203Z,99532.91
2023-01-20T18:52:51.087Z,99538.69
2023-01-20T18:56:00.045Z,99546.81
2023-01-20T18:59:05.073Z,99548.66
2023-01-20T19:02:10.030Z,99545.00
2023-01-20T19:05:12.609Z,99551.00
2023-01-20T19:08:15.981Z,99552.84
2023-01-20T19:11:21.289Z,99549.97
2023-01-20T19:14:24.303Z,99551.25
2023-01-20T19:17:30.239Z,99549.72
2023-01-20T19:20:33.377Z,99546.56
2023-01-20T19:23:36.618Z,99562.28
2023-01-20T19:26:39.847Z,99557.56
2023-01-20T19:29:42.479Z,99575.63
2023-01-20T19:32:45.599Z,99556.00
2023-01-20T19:35:48.010Z,99561.47
2023-01-20T19:38:54.259Z,99553.09
2023-01-20T19:41:57.936Z,99557.31
2023-01-20T19:45:01.207Z,99570.69
2023-01-20T19:48:05.431Z,99575.38
2023-01-20T19:51:11.853Z,99582.72
2023-01-20T19:54:15.036Z,99575.91
2023-01-20T19:57:18.481Z,99578.00
2023-01-20T20:00:22.503Z,99596.09
2023-01-20T20:03:27.949Z,99580.34
2023-01-20T20:06:36.256Z,99596.84
2023-01-20T20:09:39.239Z,99595.81
2023-01-20T20:12:42.265Z,99597.63
2023-01-20T20:15:45.313Z,99604.97
2023-01-20T20:18:52.311Z,99606.81
2023-01-20T20:21:56.779Z,99618.88
2023-01-20T20:24:59.805Z,99625.41
2023-01-20T20:28:03.298Z,99623.31
2023-01-20T20:31:08.086Z,99623.31
2023-01-20T20:34:17.514Z,99626.72
2023-01-20T20:37:20.265Z,99625.66
2023-01-20T20:40:25.442Z,99623.59
2023-01-20T20:43:28.435Z,99624.88
2023-01-20T20:46:31.945Z,99620.19
2023-01-20T20:49:35.993Z,99625.91
2023-01-20T20:52:39.032Z,99632.72
2023-01-20T20:55:42.244Z,99628.56
2023-01-20T20:59:00.102Z,99642.97
2023-01-20T21:02:03.852Z,99637.72
2023-01-20T21:05:07.911Z,99652.38
2023-01-20T21:08:10.732Z,99646.63
2023-01-20T21:11:13.810Z,99641.13
2023-01-20T21:14:18.620Z,99639.28
2023-01-20T21:17:21.264Z,99650.03
2023-01-20T21:20:24.253Z,99640.59
2023-01-20T21:23:28.614Z,99646.91
2023-01-20T21:26:31.489Z,99651.63
2023-01-20T21:29:34.474Z,99648.50
2023-01-20T21:32:40.816Z,99653.97
2023-01-20T21:35:46.853Z,99655.56
2023-01-20T21:38:50.290Z,99655.56
2023-01-20T21:41:53.194Z,99652.16
2023-01-20T21:44:55.927Z,99649.78
2023-01-20T21:48:18.387Z,99659.75
2023-01-20T21:51:39.521Z,99662.91
2023-01-20T21:54:45.387Z,99662.91
2023-01-20T21:57:51.202Z,99659.50
2023-01-20T22:00:55.337Z,99663.16
2023-01-20T22:03:57.944Z,99659.75
2023-01-20T22:07:01.036Z,99665.50
2023-01-20T22:10:04.499Z,99680.19
2023-01-20T22:13:07.476Z,99693.03
2023-01-20T22:16:10.195Z,99690.44
2023-01-20T22:19:13.836Z,99688.59
2023-01-20T22:22:16.393Z,99690.16
2023-01-20T22:25:19.281Z,99696.47
2023-01-20T22:28:24.484Z,99705.91
2023-01-20T22:31:28.696Z,99699.06
2023-01-20T22:34:31.435Z,99710.63
2023-01-20T22:37:34.365Z,99716.41
2023-01-20T22:40:37.041Z,99720.56
2023-01-20T22:43:41.275Z,99723.69
2023-01-20T22:46:43.919Z,99728.94
2023-01-20T22:49:46.765Z,99729.22
2023-01-20T22:52:49.646Z,99740.75
2023-01-20T22:56:00.647Z,99739.19
2023-01-20T22:59:03.832Z,99734.47
2023-01-20T23:02:07.116Z,99745.75
2023-01-20T23:05:10.273Z,99744.72
2023-01-20T23:08:13.680Z,99747.34
2023-01-20T23:11:18.480Z,99738.94
2023-01-20T23:14:41.525Z,99744.44
2023-01-20T23:17:44.526Z,99758.31
2023-01-20T23:20:51.746Z,99760.16
2023-01-20T23:23:54.929Z,99760.44
2023-01-20T23:26:57.770Z,99763.06
2023-01-20T23:30:00.777Z,99768.03
2023-01-20T23:33:03.962Z,99773.53
2023-01-20T23:36:17.907Z,99781.91
2023-01-20T23:39:20.948Z,99791.34
2023-01-20T23:42:23.333Z,99797.91
2023-01-20T23:45:26.573Z,99799.75
2023-01-20T23:48:29.973Z,99811.28
2023-01-20T23:51:32.667Z,99810.50
2023-01-20T23:54:35.312Z,99807.63
2023-01-20T23:57:38.069Z,99790.06
